createdAt,value
2017-08-29T00:00:16.952Z,15.96
2017-08-29T00:01:26.900Z,15.98
2017-08-29T00:02:36.868Z,15.96
2017-08-29T00:03:46.835Z,15.85
2017-08-29T00:04:57.344Z,15.84
2017-08-29T00:06:07.644Z,15.85
2017-08-29T00:07:17.595Z,15.91
2017-08-29T00:08:27.859Z,15.88
2017-08-29T00:09:37.814Z,15.83
2017-08-29T00:10:48.330Z,15.76
2017-08-29T00:11:58.288Z,15.72
2017-08-29T00:13:08.562Z,15.72
2017-08-29T00:14:18.829Z,15.78
2017-08-29T00:15:29.110Z,15.81
2017-08-29T00:16:39.625Z,15.8
2017-08-29T00:17:49.900Z,15.78
2017-08-29T00:18:59.861Z,15.75
2017-08-29T00:20:10.139Z,15.75
2017-08-29T00:21:20.103Z,15.7
2017-08-29T00:22:30.637Z,15.59
2017-08-29T00:23:40.919Z,15.67
2017-08-29T00:24:51.200Z,15.63
2017-08-29T00:26:01.486Z,15.62
2017-08-29T00:27:11.450Z,15.57
2017-08-29T00:28:21.648Z,15.55
2017-08-29T00:29:31.916Z,15.6
2017-08-29T00:30:42.194Z,15.57
2017-08-29T00:31:52.146Z,15.5
2017-08-29T00:33:02.408Z,15.52
2017-08-29T00:34:12.962Z,15.45
2017-08-29T00:35:23.230Z,15.45
2017-08-29T00:36:33.502Z,15.43
2017-08-29T00:37:43.140Z,15.39
2017-08-29T00:38:53.091Z,15.37
2017-08-29T00:40:02.985Z,15.41
2017-08-29T00:41:13.253Z,15.45
2017-08-29T00:42:22.898Z,15.43
2017-08-29T00:43:32.854Z,15.43
2017-08-29T00:44:43.155Z,15.35
2017-08-29T00:45:53.746Z,15.45
2017-08-29T00:47:04.023Z,15.44
2017-08-29T00:48:14.307Z,15.35
2017-08-29T00:49:24.256Z,15.33
2017-08-29T00:50:34.536Z,15.27
2017-08-29T00:51:45.046Z,15.39
2017-08-29T00:52:54.998Z,15.36
2017-08-29T00:54:04.962Z,15.37
2017-08-29T00:55:15.228Z,15.33
2017-08-29T00:56:25.190Z,15.29
2017-08-29T00:57:35.394Z,15.26
2017-08-29T00:58:45.673Z,15.17
2017-08-29T00:59:55.632Z,15.18
2017-08-29T01:01:05.922Z,15.27
2017-08-29T01:02:16.218Z,15.12
2017-08-29T01:03:26.751Z,15.18
2017-08-29T01:04:37.013Z,15.12
2017-08-29T01:05:47.296Z,15.15
2017-08-29T01:06:57.245Z,15.14
2017-08-29T01:08:07.521Z,15.19
2017-08-29T01:09:18.054Z,15.12
2017-08-29T01:10:28.024Z,15.07
2017-08-29T01:11:38.305Z,15.08
2017-08-29T01:12:47.630Z,15.08
2017-08-29T01:13:57.901Z,14.99
2017-08-29T01:15:08.437Z,15.04
2017-08-29T01:16:18.740Z,14.97
2017-08-29T01:17:29.020Z,14.99
2017-08-29T01:18:39.305Z,14.97
2017-08-29T01:19:49.578Z,14.94
2017-08-29T01:20:59.801Z,15.07
2017-08-29T01:22:10.077Z,14.9
2017-08-29T01:23:20.354Z,15
2017-08-29T01:24:30.315Z,14.92
2017-08-29T01:25:40.259Z,14.85
2017-08-29T01:26:50.167Z,14.92
2017-08-29T01:28:00.449Z,14.9
2017-08-29T01:29:10.735Z,14.89
2017-08-29T01:30:20.698Z,14.89
2017-08-29T01:31:31.005Z,14.92
2017-08-29T01:32:41.216Z,14.85
2017-08-29T01:33:51.164Z,14.85
2017-08-29T01:35:01.456Z,14.78
2017-08-29T01:36:11.784Z,14.82
2017-08-29T01:37:22.074Z,14.79
2017-08-29T01:38:32.324Z,14.79
2017-08-29T01:39:42.596Z,14.78
2017-08-29T01:40:52.875Z,14.81
2017-08-29T01:42:02.830Z,14.74
2017-08-29T01:43:12.795Z,14.87
2017-08-29T01:44:23.309Z,14.85
2017-08-29T01:45:33.569Z,14.86
2017-08-29T01:46:43.845Z,14.89
2017-08-29T01:47:54.113Z,14.89
2017-08-29T01:49:04.394Z,14.87
2017-08-29T01:50:14.921Z,14.9
2017-08-29T01:51:25.201Z,14.81
2017-08-29T01:52:35.477Z,14.79
2017-08-29T01:53:45.431Z,14.85
2017-08-29T01:54:55.394Z,14.74
2017-08-29T01:56:05.599Z,14.79
2017-08-29T01:57:15.560Z,14.77
2017-08-29T01:58:25.534Z,14.68
2017-08-29T01:59:35.812Z,14.62
2017-08-29T02:00:46.094Z,14.59
2017-08-29T02:01:56.623Z,14.52
2017-08-29T02:03:06.905Z,14.49
2017-08-29T02:04:17.179Z,14.43
2017-08-29T02:05:26.817Z,14.4
2017-08-29T02:06:37.087Z,14.44
2017-08-29T02:07:47.565Z,14.38
2017-08-29T02:08:57.202Z,14.34
2017-08-29T02:10:07.490Z,14.36
2017-08-29T02:11:17.755Z,14.31
2017-08-29T02:12:28.039Z,14.26
2017-08-29T02:13:38.585Z,14.34
2017-08-29T02:14:48.857Z,14.34
2017-08-29T02:15:59.174Z,14.31
2017-08-29T02:17:09.444Z,14.2
2017-08-29T02:18:19.102Z,14.25
2017-08-29T02:19:29.613Z,14.25
2017-08-29T02:20:39.907Z,14.18
2017-08-29T02:21:50.172Z,14.18
2017-08-29T02:23:00.475Z,14.19
2017-08-29T02:24:10.740Z,14.2
2017-08-29T02:25:21.309Z,14.13
2017-08-29T02:26:31.588Z,14.13
2017-08-29T02:27:41.856Z,14.13
2017-08-29T02:28:52.134Z,14.05
2017-08-29T02:30:02.418Z,14.04
2017-08-29T02:31:12.626Z,14.04
2017-08-29T02:32:22.919Z,14.03
2017-08-29T02:33:32.876Z,14.01
2017-08-29T02:34:43.166Z,13.89
2017-08-29T02:35:53.128Z,13.94
2017-08-29T02:37:03.668Z,13.97
2017-08-29T02:38:13.959Z,13.89
2017-08-29T02:39:24.225Z,13.97
2017-08-29T02:40:34.492Z,13.86
2017-08-29T02:41:44.121Z,13.93
2017-08-29T02:42:54.658Z,13.89
2017-08-29T02:44:04.950Z,13.95
2017-08-29T02:45:15.219Z,13.91
2017-08-29T02:46:25.181Z,13.91
2017-08-29T02:47:35.471Z,13.82
2017-08-29T02:48:45.982Z,13.76
2017-08-29T02:49:56.236Z,13.79
2017-08-29T02:51:06.528Z,13.79
2017-08-29T02:52:16.491Z,13.7
2017-08-29T02:53:26.782Z,13.73
2017-08-29T02:54:36.993Z,13.73
2017-08-29T02:55:47.275Z,13.75
2017-08-29T02:56:57.239Z,13.75
2017-08-29T02:58:07.205Z,13.79
2017-08-29T02:59:17.495Z,13.79
2017-08-29T03:00:28.019Z,13.73
2017-08-29T03:01:37.969Z,13.78
2017-08-29T03:02:48.225Z,13.73
2017-08-29T03:03:58.491Z,13.73
2017-08-29T03:05:08.763Z,13.73
2017-08-29T03:06:18.968Z,13.65
2017-08-29T03:07:28.933Z,13.7
2017-08-29T03:08:39.225Z,13.68
2017-08-29T03:09:49.498Z,13.62
2017-08-29T03:10:59.767Z,13.7
2017-08-29T03:12:10.287Z,13.65
2017-08-29T03:13:20.236Z,13.7
2017-08-29T03:14:30.519Z,13.68
2017-08-29T03:15:40.457Z,13.6
2017-08-29T03:16:50.725Z,13.6
2017-08-29T03:18:01.243Z,13.6
2017-08-29T03:19:11.502Z,13.6
2017-08-29T03:20:20.824Z,13.58
2017-08-29T03:21:31.094Z,13.47
2017-08-29T03:22:41.359Z,13.61
2017-08-29T03:23:51.883Z,13.49
2017-08-29T03:25:02.150Z,13.45
2017-08-29T03:26:12.441Z,13.43
2017-08-29T03:27:22.719Z,13.39
2017-08-29T03:28:32.671Z,13.39
2017-08-29T03:29:43.196Z,13.28
2017-08-29T03:30:53.493Z,13.31
2017-08-29T03:32:03.775Z,13.39
2017-08-29T03:33:13.725Z,13.37
2017-08-29T03:34:23.994Z,13.37
2017-08-29T03:35:34.204Z,13.36
2017-08-29T03:36:44.155Z,13.3
2017-08-29T03:37:54.421Z,13.3
2017-08-29T03:39:04.721Z,13.3
2017-08-29T03:40:15.000Z,13.39
2017-08-29T03:41:25.546Z,13.37
2017-08-29T03:42:35.825Z,13.37
2017-08-29T03:43:46.105Z,13.26
2017-08-29T03:44:56.052Z,13.4
2017-08-29T03:46:06.320Z,13.26
2017-08-29T03:47:16.837Z,13.3
2017-08-29T03:48:26.477Z,13.31
2017-08-29T03:49:36.437Z,13.3
2017-08-29T03:50:46.100Z,13.28
2017-08-29T03:51:56.366Z,13.28
2017-08-29T03:53:06.565Z,13.19
2017-08-29T03:54:16.851Z,13.2
2017-08-29T03:55:26.815Z,13.26
2017-08-29T03:56:37.091Z,13.21
2017-08-29T03:57:46.718Z,13.19
2017-08-29T03:58:57.241Z,13.3
2017-08-29T04:00:07.514Z,13.24
2017-08-29T04:01:17.792Z,13.2
2017-08-29T04:02:28.056Z,13.23
2017-08-29T04:03:38.336Z,13.19
2017-08-29T04:04:48.872Z,13.26
2017-08-29T04:05:58.837Z,13.19
2017-08-29T04:07:09.133Z,13.21
2017-08-29T04:08:19.107Z,13.27
2017-08-29T04:09:29.375Z,13.21
2017-08-29T04:10:39.572Z,13.23
2017-08-29T04:11:49.527Z,13.24
2017-08-29T04:12:59.801Z,13.19
2017-08-29T04:14:09.752Z,13.2
2017-08-29T04:15:19.411Z,13.27
2017-08-29T04:16:29.940Z,13.21
2017-08-29T04:17:40.239Z,13.21
2017-08-29T04:18:50.207Z,13.19
2017-08-29T04:20:00.483Z,13.24
2017-08-29T04:21:10.441Z,13.26
2017-08-29T04:22:20.647Z,13.2
2017-08-29T04:23:31.369Z,13.28
2017-08-29T04:24:41.633Z,13.3
2017-08-29T04:25:51.909Z,13.3
2017-08-29T04:27:02.170Z,13.24
2017-08-29T04:28:12.698Z,13.24
2017-08-29T04:29:22.669Z,13.28
2017-08-29T04:30:32.951Z,13.36
2017-08-29T04:31:42.918Z,13.37
2017-08-29T04:32:53.196Z,13.42
2017-08-29T04:34:03.737Z,13.39
2017-08-29T04:35:14.003Z,13.46
2017-08-29T04:36:23.963Z,13.45
2017-08-29T04:37:33.933Z,13.39
2017-08-29T04:38:43.581Z,13.43
2017-08-29T04:39:53.172Z,13.42
2017-08-29T04:41:03.131Z,13.42
2017-08-29T04:42:13.399Z,13.4
2017-08-29T04:43:23.355Z,13.39
2017-08-29T04:44:33.333Z,13.4
2017-08-29T04:45:43.883Z,13.42
2017-08-29T04:46:54.170Z,13.39
2017-08-29T04:48:04.476Z,13.4
2017-08-29T04:49:14.766Z,13.37
2017-08-29T04:50:25.039Z,13.45
2017-08-29T04:51:35.256Z,13.45
2017-08-29T04:52:45.527Z,13.47
2017-08-29T04:53:55.783Z,13.49
2017-08-29T04:55:05.744Z,13.52
2017-08-29T04:56:16.012Z,13.49
2017-08-29T04:57:26.219Z,13.58
2017-08-29T04:58:36.486Z,13.55
2017-08-29T04:59:46.431Z,13.52
2017-08-29T05:00:56.384Z,13.64
2017-08-29T05:02:06.021Z,13.54
2017-08-29T05:03:16.225Z,13.6
2017-08-29T05:04:25.854Z,13.62
2017-08-29T05:05:35.821Z,13.64
2017-08-29T05:06:46.120Z,13.68
2017-08-29T05:07:56.089Z,13.73
2017-08-29T05:09:06.599Z,13.61
2017-08-29T05:10:16.558Z,13.65
2017-08-29T05:11:26.848Z,13.68
2017-08-29T05:12:36.815Z,13.68
2017-08-29T05:13:47.111Z,13.62
2017-08-29T05:14:57.350Z,13.78
2017-08-29T05:16:07.646Z,13.8
2017-08-29T05:17:17.942Z,13.78
2017-08-29T05:18:28.214Z,13.76
2017-08-29T05:19:38.174Z,13.93
2017-08-29T05:20:48.381Z,13.83
2017-08-29T05:21:58.012Z,13.94
2017-08-29T05:23:08.278Z,13.94
2017-08-29T05:24:18.564Z,13.95
2017-08-29T05:25:28.838Z,13.95
2017-08-29T05:26:39.367Z,13.98
2017-08-29T05:27:49.648Z,14.03
2017-08-29T05:28:59.922Z,14.07
2017-08-29T05:30:10.206Z,14.12
2017-08-29T05:31:20.501Z,14.07
2017-08-29T05:32:30.406Z,14.13
2017-08-29T05:33:40.672Z,14.25
2017-08-29T05:34:50.335Z,14.31
2017-08-29T05:36:00.287Z,14.25
2017-08-29T05:37:10.568Z,14.25
2017-08-29T05:38:21.088Z,14.3
2017-08-29T05:39:31.044Z,14.31
2017-08-29T05:40:41.330Z,14.3
2017-08-29T05:41:51.282Z,14.34
2017-08-29T05:43:01.594Z,14.37
2017-08-29T05:44:11.821Z,14.4
2017-08-29T05:45:21.470Z,14.45
2017-08-29T05:46:31.496Z,14.45
2017-08-29T05:47:41.843Z,14.51
2017-08-29T05:48:52.201Z,14.52
2017-08-29T05:50:02.426Z,14.63
2017-08-29T05:51:12.740Z,14.61
2017-08-29T05:52:23.084Z,14.63
2017-08-29T05:53:33.074Z,14.7
2017-08-29T05:54:43.364Z,14.77
2017-08-29T05:55:53.944Z,14.85
2017-08-29T05:57:04.227Z,14.78
2017-08-29T05:58:14.210Z,14.74
2017-08-29T05:59:24.499Z,14.89
2017-08-29T06:00:34.778Z,14.86
2017-08-29T06:01:45.301Z,14.86
2017-08-29T06:02:55.271Z,14.93
2017-08-29T06:04:05.571Z,15.05
2017-08-29T06:05:15.839Z,15
2017-08-29T06:06:26.119Z,15.05
2017-08-29T06:07:36.649Z,15.12
2017-08-29T06:08:46.918Z,15.17
2017-08-29T06:09:57.214Z,15.15
2017-08-29T06:11:07.176Z,15.22
2017-08-29T06:12:16.822Z,15.27
2017-08-29T06:13:27.346Z,15.35
2017-08-29T06:14:37.643Z,15.32
2017-08-29T06:15:47.932Z,15.51
2017-08-29T06:16:57.906Z,15.45
2017-08-29T06:18:07.547Z,15.54
2017-08-29T06:19:18.077Z,15.63
2017-08-29T06:20:28.376Z,15.63
2017-08-29T06:21:38.636Z,15.76
2017-08-29T06:22:48.917Z,15.73
2017-08-29T06:23:59.182Z,15.76
2017-08-29T06:25:09.726Z,15.85
2017-08-29T06:26:19.689Z,15.81
2017-08-29T06:27:29.978Z,15.94
2017-08-29T06:28:40.264Z,15.92
2017-08-29T06:29:50.558Z,16.02
2017-08-29T06:31:01.125Z,16
2017-08-29T06:32:11.393Z,16.12
2017-08-29T06:33:21.675Z,16.24
2017-08-29T06:34:31.652Z,16.17
2017-08-29T06:35:41.945Z,16.25
2017-08-29T06:36:52.459Z,16.28
2017-08-29T06:38:02.778Z,16.31
2017-08-29T06:39:12.756Z,16.37
2017-08-29T06:40:22.723Z,16.43
2017-08-29T06:41:33.063Z,16.51
2017-08-29T06:42:43.604Z,16.47
2017-08-29T06:43:53.887Z,16.61
2017-08-29T06:45:04.208Z,16.57
2017-08-29T06:46:14.488Z,16.64
2017-08-29T06:47:24.481Z,16.74
2017-08-29T06:48:35.040Z,16.83
2017-08-29T06:49:45.014Z,16.91
2017-08-29T06:50:55.296Z,16.84
2017-08-29T06:52:05.271Z,16.94
2017-08-29T06:53:15.561Z,16.97
2017-08-29T06:54:26.097Z,17.04
2017-08-29T06:55:35.757Z,17.16
2017-08-29T06:56:46.047Z,17.24
2017-08-29T06:57:56.317Z,17.32
2017-08-29T06:59:06.595Z,17.35
2017-08-29T07:00:17.146Z,17.38
2017-08-29T07:01:27.442Z,17.47
2017-08-29T07:02:37.413Z,17.5
2017-08-29T07:03:47.388Z,17.63
2017-08-29T07:04:57.889Z,17.68
2017-08-29T07:06:08.413Z,17.68
2017-08-29T07:07:18.707Z,17.76
2017-08-29T07:08:28.991Z,17.86
2017-08-29T07:09:39.297Z,17.87
2017-08-29T07:10:49.247Z,17.9
2017-08-29T07:11:59.131Z,18.02
2017-08-29T07:13:09.101Z,18.02
2017-08-29T07:14:19.384Z,18.11
2017-08-29T07:15:29.677Z,18.06
2017-08-29T07:16:39.655Z,18.23
2017-08-29T07:17:49.883Z,18.21
2017-08-29T07:18:59.864Z,18.41
2017-08-29T07:20:09.524Z,18.48
2017-08-29T07:21:19.485Z,18.33
2017-08-29T07:22:29.759Z,18.43
2017-08-29T07:23:40.334Z,18.58
2017-08-29T07:24:50.639Z,18.67
2017-08-29T07:26:00.901Z,18.74
2017-08-29T07:27:11.168Z,18.91
2017-08-29T07:28:21.458Z,18.89
2017-08-29T07:29:31.664Z,19.05
2017-08-29T07:30:41.633Z,19.07
2017-08-29T07:31:51.930Z,19.08
2017-08-29T07:33:02.243Z,19.15
2017-08-29T07:34:11.892Z,19.17
2017-08-29T07:35:22.480Z,19.2
2017-08-29T07:36:32.758Z,19.3
2017-08-29T07:37:43.028Z,19.35
2017-08-29T07:38:53.333Z,19.44
2017-08-29T07:40:03.625Z,19.41
2017-08-29T07:41:14.176Z,19.56
2017-08-29T07:42:24.450Z,19.52
2017-08-29T07:43:34.756Z,19.53
2017-08-29T07:44:44.713Z,19.63
2017-08-29T07:45:54.993Z,19.56
2017-08-29T07:47:04.601Z,19.66
2017-08-29T07:48:14.299Z,19.77
2017-08-29T07:49:24.270Z,19.82
2017-08-29T07:50:34.600Z,19.92
2017-08-29T07:51:44.902Z,19.96
2017-08-29T07:52:55.148Z,20.08
2017-08-29T07:54:05.438Z,20.11
2017-08-29T07:55:15.722Z,20.11
2017-08-29T07:56:25.678Z,20.22
2017-08-29T07:57:35.973Z,20.18
2017-08-29T07:58:46.224Z,20.19
2017-08-29T07:59:56.194Z,20.18
2017-08-29T08:01:06.490Z,20.22
2017-08-29T08:02:16.778Z,20.21
2017-08-29T08:03:26.741Z,20.34
2017-08-29T08:04:37.273Z,20.46
2017-08-29T08:05:47.565Z,20.5
2017-08-29T08:06:57.846Z,20.66
2017-08-29T08:08:07.811Z,20.74
2017-08-29T08:09:17.786Z,20.75
2017-08-29T08:10:28.330Z,20.85
2017-08-29T08:11:38.612Z,20.77
2017-08-29T08:12:48.901Z,20.85
2017-08-29T08:13:59.202Z,20.85
2017-08-29T08:15:09.494Z,20.9
2017-08-29T08:16:19.714Z,20.92
2017-08-29T08:17:29.677Z,21.03
2017-08-29T08:18:39.968Z,21.01
2017-08-29T08:19:50.244Z,21.05
2017-08-29T08:20:59.903Z,21.14
2017-08-29T08:22:10.492Z,21.3
2017-08-29T08:23:20.777Z,21.41
2017-08-29T08:24:30.740Z,21.54
2017-08-29T08:25:41.046Z,21.54
2017-08-29T08:26:51.345Z,21.78
2017-08-29T08:28:01.902Z,21.99
2017-08-29T08:29:12.197Z,22.18
2017-08-29T08:30:22.513Z,22.34
2017-08-29T08:31:32.781Z,22.68
2017-08-29T08:32:42.452Z,22.76
2017-08-29T08:33:52.987Z,22.83
2017-08-29T08:35:02.646Z,22.8
2017-08-29T08:36:12.632Z,22.93
2017-08-29T08:37:22.928Z,23.04
2017-08-29T08:38:33.209Z,23.29
2017-08-29T08:39:43.751Z,23.47
2017-08-29T08:40:54.028Z,23.44
2017-08-29T08:42:04.046Z,23.52
2017-08-29T08:43:14.022Z,23.48
2017-08-29T08:44:24.018Z,23.37
2017-08-29T08:45:34.552Z,23.32
2017-08-29T08:46:44.539Z,23.14
2017-08-29T08:47:54.839Z,22.99
2017-08-29T08:49:05.126Z,23.06
2017-08-29T08:50:14.772Z,23.2
2017-08-29T08:51:24.685Z,23.29
2017-08-29T08:52:34.965Z,23.34
2017-08-29T08:53:44.941Z,23.37
2017-08-29T08:54:54.914Z,23.37
2017-08-29T08:56:05.247Z,23.47
2017-08-29T08:57:15.525Z,23.36
2017-08-29T08:58:25.496Z,23.28
2017-08-29T08:59:35.822Z,23.29
2017-08-29T09:00:46.109Z,23.4
2017-08-29T09:01:56.413Z,23.56
2017-08-29T09:03:06.324Z,23.81
2017-08-29T09:04:15.963Z,23.96
2017-08-29T09:05:26.266Z,24.06
2017-08-29T09:06:36.593Z,23.92
2017-08-29T09:07:46.590Z,24.03
2017-08-29T09:08:56.517Z,24.11
2017-08-29T09:10:06.799Z,24.16
2017-08-29T09:11:17.125Z,24.25
2017-08-29T09:12:27.426Z,24.21
2017-08-29T09:13:37.778Z,24.04
2017-08-29T09:14:48.060Z,23.94
2017-08-29T09:15:58.356Z,23.89
2017-08-29T09:17:08.358Z,23.89
2017-08-29T09:18:18.371Z,23.84
2017-08-29T09:19:28.666Z,23.95
2017-08-29T09:20:39.225Z,23.89
2017-08-29T09:21:49.520Z,24.11
2017-08-29T09:22:59.486Z,24.14
2017-08-29T09:24:09.451Z,24.19
2017-08-29T09:25:19.741Z,24.09
2017-08-29T09:26:29.969Z,24.28
2017-08-29T09:27:40.272Z,24.26
2017-08-29T09:28:50.219Z,24.51
2017-08-29T09:30:00.493Z,24.34
2017-08-29T09:31:10.472Z,24.32
2017-08-29T09:32:21.007Z,24.31
2017-08-29T09:33:31.022Z,24.24
2017-08-29T09:34:41.331Z,24.25
2017-08-29T09:35:51.646Z,24.11
2017-08-29T09:37:01.300Z,23.96
2017-08-29T09:38:11.524Z,23.92
2017-08-29T09:39:21.809Z,23.99
2017-08-29T09:40:31.784Z,24.04
2017-08-29T09:41:42.081Z,24.25
2017-08-29T09:42:52.373Z,24.31
2017-08-29T09:44:02.953Z,24.26
2017-08-29T09:45:13.277Z,24.47
2017-08-29T09:46:23.607Z,24.31
2017-08-29T09:47:33.273Z,24.51
2017-08-29T09:48:43.565Z,24.47
2017-08-29T09:49:53.789Z,24.46
2017-08-29T09:51:03.757Z,24.38
2017-08-29T09:52:13.728Z,24.55
2017-08-29T09:53:24.044Z,24.58
2017-08-29T09:54:34.378Z,24.61
2017-08-29T09:55:44.919Z,24.71
2017-08-29T09:56:54.947Z,24.75
2017-08-29T09:58:05.232Z,24.71
2017-08-29T09:59:15.568Z,24.71
2017-08-29T10:00:25.868Z,24.86
2017-08-29T10:01:35.993Z,24.84
2017-08-29T10:02:45.964Z,25.03
2017-08-29T10:03:56.261Z,25.24
2017-08-29T10:05:06.243Z,25.24
2017-08-29T10:06:16.536Z,25.33
2017-08-29T10:07:27.087Z,25.36
2017-08-29T10:08:37.383Z,25.67
2017-08-29T10:09:47.369Z,25.7
2017-08-29T10:10:57.667Z,25.74
2017-08-29T10:12:07.628Z,25.55
2017-08-29T10:13:17.596Z,25.59
2017-08-29T10:14:27.887Z,25.46
2017-08-29T10:15:37.868Z,25.49
2017-08-29T10:16:47.878Z,25.62
2017-08-29T10:17:58.168Z,25.52
2017-08-29T10:19:08.415Z,25.55
2017-08-29T10:20:18.702Z,25.39
2017-08-29T10:21:29.029Z,25.39
2017-08-29T10:22:39.022Z,25.49
2017-08-29T10:23:49.348Z,25.77
2017-08-29T10:24:59.898Z,25.81
2017-08-29T10:26:10.243Z,25.8
2017-08-29T10:27:20.538Z,25.93
2017-08-29T10:28:30.510Z,25.81
2017-08-29T10:29:40.829Z,25.68
2017-08-29T10:30:51.372Z,25.56
2017-08-29T10:32:01.683Z,25.52
2017-08-29T10:33:11.983Z,25.63
2017-08-29T10:34:21.654Z,25.76
2017-08-29T10:35:31.614Z,25.77
2017-08-29T10:36:42.152Z,25.85
2017-08-29T10:37:52.156Z,25.89
2017-08-29T10:39:02.138Z,25.88
2017-08-29T10:40:12.434Z,25.93
2017-08-29T10:41:22.729Z,26.15
2017-08-29T10:42:33.265Z,26.22
2017-08-29T10:43:43.581Z,26.24
2017-08-29T10:44:53.615Z,26.19
2017-08-29T10:46:03.909Z,26.1
2017-08-29T10:47:14.208Z,26.29
2017-08-29T10:48:24.432Z,26.51
2017-08-29T10:49:34.751Z,26.61
2017-08-29T10:50:45.050Z,26.49
2017-08-29T10:51:55.373Z,26.56
2017-08-29T10:53:05.938Z,26.81
2017-08-29T10:54:16.493Z,26.82
2017-08-29T10:55:26.537Z,26.41
2017-08-29T10:56:36.531Z,26.34
2017-08-29T10:57:46.826Z,26.22
2017-08-29T10:58:57.130Z,26.16
2017-08-29T11:00:07.655Z,26.44
2017-08-29T11:01:17.967Z,26.45
2017-08-29T11:02:28.315Z,26.42
2017-08-29T11:03:38.204Z,26.3
2017-08-29T11:04:48.570Z,26.01
2017-08-29T11:05:59.172Z,26.01
2017-08-29T11:07:09.460Z,26.06
2017-08-29T11:08:19.443Z,26.07
2017-08-29T11:09:29.431Z,26.04
2017-08-29T11:10:39.726Z,25.93
2017-08-29T11:11:49.973Z,25.92
2017-08-29T11:13:00.292Z,26.15
2017-08-29T11:14:10.270Z,26.3
2017-08-29T11:15:20.573Z,26.44
2017-08-29T11:16:30.560Z,26.6
2017-08-29T11:17:41.092Z,26.85
2017-08-29T11:18:51.393Z,26.96
2017-08-29T11:20:01.681Z,26.92
2017-08-29T11:21:11.345Z,26.89
2017-08-29T11:22:21.642Z,26.53
2017-08-29T11:23:31.872Z,26.46
2017-08-29T11:24:42.165Z,26.48
2017-08-29T11:25:52.473Z,26.49
2017-08-29T11:27:02.767Z,26.46
2017-08-29T11:28:13.311Z,26.39
2017-08-29T11:29:23.895Z,26.45
2017-08-29T11:30:33.583Z,26.44
2017-08-29T11:31:43.896Z,26.78
2017-08-29T11:32:54.457Z,26.93
2017-08-29T11:34:04.765Z,26.96
2017-08-29T11:35:15.309Z,26.88
2017-08-29T11:36:25.619Z,26.89
2017-08-29T11:37:35.266Z,26.88
2017-08-29T11:38:45.578Z,27.01
2017-08-29T11:39:55.576Z,27.33
2017-08-29T11:41:05.794Z,27.47
2017-08-29T11:42:16.104Z,27.63
2017-08-29T11:43:26.436Z,28
2017-08-29T11:44:36.462Z,28.01
2017-08-29T11:45:46.742Z,27.98
2017-08-29T11:46:57.286Z,27.91
2017-08-29T11:48:07.312Z,27.93
2017-08-29T11:49:17.601Z,27.68
2017-08-29T11:50:27.889Z,27.72
2017-08-29T11:51:37.874Z,27.93
2017-08-29T11:52:48.406Z,27.93
2017-08-29T11:53:58.700Z,27.86
2017-08-29T11:55:08.689Z,27.76
2017-08-29T11:56:18.993Z,27.76
2017-08-29T11:57:28.963Z,27.55
2017-08-29T11:58:39.531Z,27.6
2017-08-29T11:59:49.499Z,27.78
2017-08-29T12:00:59.490Z,27.73
2017-08-29T12:02:09.476Z,27.73
2017-08-29T12:03:19.780Z,28.01
2017-08-29T12:04:30.018Z,28.18
2017-08-29T12:05:40.314Z,28.13
2017-08-29T12:06:50.613Z,28.16
2017-08-29T12:08:00.268Z,28.08
2017-08-29T12:09:10.565Z,28.1
2017-08-29T12:10:20.791Z,28.12
2017-08-29T12:11:31.096Z,28.3
2017-08-29T12:12:41.080Z,28.09
2017-08-29T12:13:51.363Z,28.03
2017-08-29T12:15:01.643Z,28.28
2017-08-29T12:16:11.863Z,28.4
2017-08-29T12:17:22.161Z,28.82
2017-08-29T12:18:32.145Z,29.02
2017-08-29T12:19:42.418Z,29.2
2017-08-29T12:20:52.394Z,29.34
2017-08-29T12:22:02.931Z,29.43
2017-08-29T12:23:13.236Z,29.83
2017-08-29T12:24:23.514Z,29.67
2017-08-29T12:25:33.816Z,29.44
2017-08-29T12:26:44.108Z,29.43
2017-08-29T12:27:54.652Z,29.34
2017-08-29T12:29:04.627Z,29.34
2017-08-29T12:30:14.602Z,29.22
2017-08-29T12:31:24.904Z,29.49
2017-08-29T12:32:35.194Z,29.4
2017-08-29T12:33:45.426Z,29.02
2017-08-29T12:34:55.724Z,29.05
2017-08-29T12:36:06.000Z,28.78
2017-08-29T12:37:15.972Z,28.83
2017-08-29T12:38:25.640Z,28.74
2017-08-29T12:39:36.194Z,28.68
2017-08-29T12:40:46.180Z,28.67
2017-08-29T12:41:56.163Z,28.83
2017-08-29T12:43:06.138Z,28.86
2017-08-29T12:44:16.121Z,29
2017-08-29T12:45:26.669Z,28.96
2017-08-29T12:46:36.969Z,28.87
2017-08-29T12:47:47.260Z,28.59
2017-08-29T12:48:57.545Z,28.38
2017-08-29T12:50:07.200Z,28.65
2017-08-29T12:51:17.429Z,28.75
2017-08-29T12:52:27.720Z,29.07
2017-08-29T12:53:37.710Z,28.94
2017-08-29T12:54:47.701Z,28.92
2017-08-29T12:55:58.006Z,28.53
2017-08-29T12:57:08.259Z,28.67
2017-08-29T12:58:18.253Z,28.75
2017-08-29T12:59:28.561Z,28.77
2017-08-29T13:00:38.850Z,29.05
2017-08-29T13:01:49.128Z,29.18
2017-08-29T13:02:59.678Z,29.55
2017-08-29T13:04:09.650Z,29.71
2017-08-29T13:05:19.627Z,30.01
2017-08-29T13:06:29.588Z,30.33
2017-08-29T13:07:39.869Z,30.23
2017-08-29T13:08:49.863Z,29.84
2017-08-29T13:09:59.846Z,29.84
2017-08-29T13:11:09.512Z,29.76
2017-08-29T13:12:19.802Z,29.81
2017-08-29T13:13:29.772Z,29.71
2017-08-29T13:14:40.329Z,29.68
2017-08-29T13:15:50.619Z,29.69
2017-08-29T13:17:00.919Z,29.65
2017-08-29T13:18:11.220Z,29.71
2017-08-29T13:19:21.523Z,29.98
2017-08-29T13:20:31.425Z,29.98
2017-08-29T13:21:41.712Z,29.49
2017-08-29T13:22:51.709Z,29.28
2017-08-29T13:24:01.690Z,29.4
2017-08-29T13:25:11.988Z,29.22
2017-08-29T13:26:22.526Z,28.89
2017-08-29T13:27:32.819Z,28.8
2017-08-29T13:28:42.479Z,28.9
2017-08-29T13:29:52.764Z,29.13
2017-08-29T13:31:02.746Z,29.16
2017-08-29T13:32:13.288Z,29.22
2017-08-29T13:33:23.582Z,29
2017-08-29T13:34:33.560Z,29.03
2017-08-29T13:35:43.859Z,29.47
2017-08-29T13:36:54.145Z,30.05
2017-08-29T13:38:04.703Z,30.52
2017-08-29T13:39:14.698Z,30.17
2017-08-29T13:40:24.994Z,30.35
2017-08-29T13:41:35.293Z,30.32
2017-08-29T13:42:45.572Z,29.65
2017-08-29T13:43:55.163Z,29.44
2017-08-29T13:45:04.813Z,29.46
2017-08-29T13:46:15.130Z,29.44
2017-08-29T13:47:25.419Z,29.4
2017-08-29T13:48:35.710Z,29.68
2017-08-29T13:49:46.330Z,29.71
2017-08-29T13:50:56.630Z,29.84
2017-08-29T13:52:06.607Z,30.13
2017-08-29T13:53:16.911Z,30.29
2017-08-29T13:54:27.234Z,29.77
2017-08-29T13:55:37.782Z,29.61
2017-08-29T13:56:48.071Z,29.53
2017-08-29T13:57:58.373Z,29.65
2017-08-29T13:59:08.051Z,29.79
2017-08-29T14:00:18.332Z,29.9
2017-08-29T14:01:28.874Z,30.03
2017-08-29T14:02:38.857Z,30.26
2017-08-29T14:03:49.153Z,30.24
2017-08-29T14:04:59.444Z,30.39
2017-08-29T14:06:09.748Z,30.29
2017-08-29T14:07:19.972Z,30.38
2017-08-29T14:08:30.276Z,30.24
2017-08-29T14:09:40.239Z,30.16
2017-08-29T14:10:50.222Z,30.23
2017-08-29T14:12:00.206Z,30.11
2017-08-29T14:13:10.801Z,29.8
2017-08-29T14:14:20.783Z,29.83
2017-08-29T14:15:30.768Z,29.67
2017-08-29T14:16:41.051Z,29.52
2017-08-29T14:17:51.344Z,29.53
2017-08-29T14:19:01.925Z,29.49
2017-08-29T14:20:12.250Z,29.87
2017-08-29T14:21:22.533Z,30.1
2017-08-29T14:22:32.828Z,30.44
2017-08-29T14:23:43.151Z,30.46
2017-08-29T14:24:53.718Z,30.88
2017-08-29T14:26:04.018Z,31.1
2017-08-29T14:27:13.669Z,30.91
2017-08-29T14:28:23.651Z,30.62
2017-08-29T14:29:33.955Z,30.38
2017-08-29T14:30:44.495Z,30.21
2017-08-29T14:31:54.473Z,30.11
2017-08-29T14:33:04.804Z,30.11
2017-08-29T14:34:14.826Z,30.03
2017-08-29T14:35:25.130Z,30.14
2017-08-29T14:36:35.681Z,29.98
2017-08-29T14:37:45.987Z,29.87
2017-08-29T14:38:56.282Z,29.76
2017-08-29T14:40:06.247Z,29.86
2017-08-29T14:41:16.224Z,30.18
2017-08-29T14:42:26.451Z,30.27
2017-08-29T14:43:36.742Z,30.54
2017-08-29T14:44:47.039Z,30.91
2017-08-29T14:45:57.018Z,30.92
2017-08-29T14:47:06.994Z,30.74
2017-08-29T14:48:17.545Z,30.86
2017-08-29T14:49:27.848Z,30.4
2017-08-29T14:50:37.823Z,30.35
2017-08-29T14:51:47.822Z,30.23
2017-08-29T14:52:58.123Z,30.39
2017-08-29T14:54:08.677Z,30.1
2017-08-29T14:55:18.669Z,29.9
2017-08-29T14:56:28.647Z,29.81
2017-08-29T14:57:38.634Z,29.79
2017-08-29T14:58:48.920Z,29.77
2017-08-29T14:59:59.513Z,29.8
2017-08-29T15:01:09.806Z,29.55
2017-08-29T15:02:19.814Z,29.43
2017-08-29T15:03:29.478Z,29.59
2017-08-29T15:04:39.759Z,29.81
2017-08-29T15:05:50.302Z,30.08
2017-08-29T15:07:00.290Z,30.31